createdAt,value
2022-09-26T00:01:08.035Z,3.70
2022-09-26T00:03:38.148Z,3.67
2022-09-26T00:06:07.680Z,3.65
2022-09-26T00:08:36.424Z,3.38
2022-09-26T00:11:05.762Z,3.85
2022-09-26T00:13:35.015Z,3.58
2022-09-26T00:16:03.905Z,3.55
2022-09-26T00:18:32.247Z,3.63
2022-09-26T00:21:05.994Z,3.20
2022-09-26T00:26:02.594Z,3.15
2022-09-26T00:28:31.190Z,3.47
2022-09-26T00:30:59.715Z,3.63
2022-09-26T00:33:28.110Z,4.10
2022-09-26T00:35:57.330Z,4.30
2022-09-26T00:38:27.246Z,4.53
2022-09-26T00:40:55.761Z,4.15
2022-09-26T00:43:29.214Z,3.53
2022-09-26T00:45:59.437Z,3.45
2022-09-26T00:48:27.864Z,3.70
2022-09-26T00:50:56.373Z,3.70
2022-09-26T00:53:27.594Z,3.65
2022-09-26T00:55:58.454Z,3.65
2022-09-26T00:58:29.256Z,3.28
2022-09-26T01:00:58.734Z,3.80
2022-09-26T01:03:27.575Z,3.65
2022-09-26T01:05:56.323Z,4.30
2022-09-26T01:08:28.748Z,3.78
2022-09-26T01:10:58.573Z,3.92
2022-09-26T01:13:27.486Z,3.72
2022-09-26T01:15:55.874Z,3.65
2022-09-26T01:18:24.725Z,4.07
2022-09-26T01:20:55.160Z,4.00
2022-09-26T01:23:41.813Z,4.07
2022-09-26T01:26:27.903Z,4.50
2022-09-26T01:29:06.891Z,3.53
2022-09-26T01:31:41.328Z,4.18
2022-09-26T01:34:13.709Z,3.97
2022-09-26T01:36:49.009Z,4.45
2022-09-26T01:39:28.125Z,3.95
2022-09-26T01:42:01.117Z,3.85
2022-09-26T01:44:31.847Z,4.40
2022-09-26T01:47:03.435Z,4.95
2022-09-26T01:49:34.583Z,4.28
2022-09-26T01:52:07.444Z,4.00
2022-09-26T01:54:38.388Z,4.23
2022-09-26T01:57:09.045Z,4.40
2022-09-26T01:59:41.142Z,4.93
2022-09-26T02:02:13.176Z,4.68
2022-09-26T02:04:44.488Z,4.70
2022-09-26T02:07:15.049Z,4.75
2022-09-26T02:09:47.042Z,4.95
2022-09-26T02:12:20.467Z,5.00
2022-09-26T02:14:49.956Z,4.70
2022-09-26T02:17:22.540Z,4.90
2022-09-26T02:19:53.745Z,5.35
2022-09-26T02:22:22.102Z,4.45
2022-09-26T02:24:50.516Z,5.03
2022-09-26T02:27:18.840Z,5.10
2022-09-26T02:29:47.428Z,4.95
2022-09-26T02:32:17.813Z,4.60
2022-09-26T02:34:49.176Z,4.68
2022-09-26T02:37:18.368Z,5.05
2022-09-26T02:39:47.656Z,4.32
2022-09-26T02:42:21.257Z,4.70
2022-09-26T02:45:10.665Z,4.55
2022-09-26T02:47:48.700Z,4.82
2022-09-26T02:50:25.124Z,4.78
2022-09-26T02:52:58.458Z,4.50
2022-09-26T02:55:29.601Z,5.10
2022-09-26T02:58:05.862Z,4.60
2022-09-26T03:00:41.457Z,4.75
2022-09-26T03:03:18.513Z,4.82
2022-09-26T03:05:50.237Z,4.85
2022-09-26T03:08:20.868Z,4.32
2022-09-26T03:10:50.165Z,4.32
2022-09-26T03:13:19.002Z,4.68
2022-09-26T03:15:48.838Z,4.45
2022-09-26T03:18:21.574Z,4.60
2022-09-26T03:20:54.213Z,4.40
2022-09-26T03:23:23.508Z,4.35
2022-09-26T03:25:59.445Z,4.28
2022-09-26T03:28:27.902Z,4.15
2022-09-26T03:30:56.459Z,4.10
2022-09-26T03:33:25.081Z,4.28
2022-09-26T03:35:54.826Z,4.60
2022-09-26T03:38:23.380Z,4.30
2022-09-26T03:40:52.757Z,4.65
2022-09-26T03:43:24.220Z,4.30
2022-09-26T03:45:52.677Z,4.03
2022-09-26T03:48:21.314Z,4.22
2022-09-26T03:50:49.687Z,4.32
2022-09-26T03:53:19.932Z,4.50
2022-09-26T03:55:48.309Z,4.00
2022-09-26T03:58:16.670Z,4.20
2022-09-26T04:00:45.088Z,3.80
2022-09-26T04:03:13.459Z,4.15
2022-09-26T04:05:42.660Z,3.95
2022-09-26T04:08:11.036Z,4.10
2022-09-26T04:10:40.890Z,4.20
2022-09-26T04:13:09.262Z,3.88
2022-09-26T04:15:37.724Z,4.05
2022-09-26T04:18:06.137Z,4.13
2022-09-26T04:20:34.526Z,4.03
2022-09-26T04:23:03.067Z,3.75
2022-09-26T04:25:31.705Z,4.55
2022-09-26T04:28:01.455Z,4.22
2022-09-26T04:30:30.629Z,4.15
2022-09-26T04:32:59.002Z,4.47
2022-09-26T04:35:27.426Z,5.00
2022-09-26T04:37:55.823Z,5.15
2022-09-26T04:40:24.250Z,5.00
2022-09-26T04:42:52.686Z,4.72
2022-09-26T04:45:24.925Z,5.22
2022-09-26T04:47:53.665Z,5.40
2022-09-26T04:50:22.077Z,5.18
2022-09-26T04:52:50.413Z,5.07
2022-09-26T04:55:19.508Z,5.28
2022-09-26T04:57:50.815Z,5.50
2022-09-26T05:00:19.816Z,5.20
2022-09-26T05:02:49.964Z,5.35
2022-09-26T05:05:19.977Z,6.13
2022-09-26T05:07:49.111Z,6.47
2022-09-26T05:10:17.861Z,7.47
2022-09-26T05:12:48.664Z,8.07
2022-09-26T05:15:17.409Z,8.05
2022-09-26T05:17:46.037Z,8.13
2022-09-26T05:20:20.540Z,7.97
2022-09-26T05:22:49.304Z,7.80
2022-09-26T05:25:35.365Z,7.90
2022-09-26T05:28:04.041Z,7.97
2022-09-26T05:30:32.670Z,8.20
2022-09-26T05:33:01.296Z,8.38
2022-09-26T05:35:35.406Z,9.43
2022-09-26T05:38:05.160Z,8.77
2022-09-26T05:40:51.364Z,9.10
2022-09-26T05:43:19.968Z,9.23
2022-09-26T05:45:51.037Z,10.75
2022-09-26T05:48:20.863Z,10.90
2022-09-26T05:50:50.775Z,10.07
2022-09-26T05:53:19.559Z,9.80
2022-09-26T05:55:51.005Z,10.38
2022-09-26T05:58:20.097Z,10.98
2022-09-26T06:00:49.833Z,9.88
2022-09-26T06:03:21.100Z,11.07
2022-09-26T06:05:51.734Z,10.90
2022-09-26T06:08:21.094Z,11.52
2022-09-26T06:10:49.967Z,11.85
2022-09-26T06:13:21.462Z,11.70
2022-09-26T06:15:52.988Z,12.50
2022-09-26T06:18:21.784Z,12.13
2022-09-26T06:20:54.995Z,12.43
2022-09-26T06:23:29.420Z,12.65
2022-09-26T06:26:01.763Z,13.18
2022-09-26T06:28:30.555Z,12.35
2022-09-26T06:30:59.809Z,12.18
2022-09-26T06:33:33.485Z,13.27
2022-09-26T06:38:32.625Z,12.18
2022-09-26T06:41:01.509Z,13.38
2022-09-26T06:43:37.209Z,12.50
2022-09-26T06:46:09.784Z,13.32
2022-09-26T06:48:38.379Z,14.13
2022-09-26T06:51:07.144Z,12.55
2022-09-26T06:53:37.295Z,11.95
2022-09-26T06:56:08.930Z,12.35
2022-09-26T06:58:37.491Z,11.95
2022-09-26T07:01:06.813Z,11.80
2022-09-26T07:03:36.113Z,11.27
2022-09-26T07:06:05.254Z,11.10
2022-09-26T07:08:57.818Z,10.52
2022-09-26T07:14:17.409Z,10.57
2022-09-26T07:16:46.337Z,10.27
2022-09-26T07:19:20.295Z,10.23
2022-09-26T07:21:53.140Z,9.57
2022-09-26T07:24:21.866Z,9.85
2022-09-26T07:26:54.125Z,10.10
2022-09-26T07:29:25.750Z,9.85
2022-09-26T07:31:54.702Z,8.75
2022-09-26T07:34:25.268Z,9.48
2022-09-26T07:36:56.513Z,8.90
2022-09-26T07:39:25.118Z,8.90
2022-09-26T07:41:56.553Z,9.45
2022-09-26T07:47:33.213Z,9.05
2022-09-26T07:50:17.374Z,9.88
2022-09-26T07:55:19.495Z,9.18
2022-09-26T07:57:51.938Z,9.13
2022-09-26T08:00:22.644Z,8.77
2022-09-26T08:02:52.966Z,9.23
2022-09-26T08:05:25.783Z,8.40
2022-09-26T08:07:59.182Z,8.93
2022-09-26T08:10:28.875Z,8.15
2022-09-26T08:13:01.816Z,8.45
2022-09-26T08:15:34.189Z,8.60
2022-09-26T08:18:07.757Z,7.85
2022-09-26T08:20:37.100Z,7.10
2022-09-26T08:23:08.208Z,7.47
2022-09-26T08:25:36.662Z,7.00
2022-09-26T08:28:13.143Z,7.68
2022-09-26T08:30:42.497Z,7.30
2022-09-26T08:33:14.111Z,7.80
2022-09-26T08:35:42.938Z,7.25
2022-09-26T08:38:11.482Z,6.40
2022-09-26T08:40:44.360Z,6.88
2022-09-26T08:43:19.387Z,6.17
2022-09-26T08:46:08.419Z,6.63
2022-09-26T08:48:45.744Z,5.00
2022-09-26T08:51:29.201Z,5.00
2022-09-26T08:54:05.994Z,4.40
2022-09-26T08:56:37.939Z,4.80
2022-09-26T08:59:10.370Z,4.40
2022-09-26T09:01:41.159Z,4.43
2022-09-26T09:04:12.807Z,4.47
2022-09-26T09:06:41.554Z,3.95
2022-09-26T09:09:10.131Z,4.47
2022-09-26T09:11:51.495Z,4.32
2022-09-26T09:14:30.339Z,3.45
2022-09-26T09:17:06.325Z,2.92
2022-09-26T09:19:37.899Z,3.22
2022-09-26T09:22:16.979Z,3.17
2022-09-26T09:28:00.099Z,2.55
2022-09-26T09:30:41.234Z,2.65
2022-09-26T09:33:14.127Z,2.80
2022-09-26T09:35:46.280Z,2.50
2022-09-26T09:38:16.882Z,3.05
2022-09-26T09:40:48.107Z,2.70
2022-09-26T09:43:28.603Z,2.70
2022-09-26T09:46:05.512Z,2.17
2022-09-26T09:48:40.235Z,2.15
2022-09-26T09:51:13.492Z,2.40
2022-09-26T09:53:52.210Z,2.38
2022-09-26T09:56:26.038Z,2.50
2022-09-26T10:01:28.379Z,2.50
2022-09-26T10:04:03.658Z,2.10
2022-09-26T10:06:45.293Z,2.28
2022-09-26T10:09:35.230Z,2.10
2022-09-26T10:12:12.557Z,1.67
2022-09-26T10:14:49.945Z,2.45
2022-09-26T10:17:28.450Z,1.88
2022-09-26T10:19:59.683Z,1.80
2022-09-26T10:22:32.797Z,2.10
2022-09-26T10:25:08.412Z,1.30
2022-09-26T10:27:39.677Z,1.38
2022-09-26T10:30:22.738Z,1.50
2022-09-26T10:32:56.466Z,1.70
2022-09-26T10:35:26.376Z,1.50
2022-09-26T10:38:02.361Z,1.90
2022-09-26T10:40:49.757Z,1.10
2022-09-26T10:43:30.798Z,1.20
2022-09-26T10:46:07.466Z,1.67
2022-09-26T10:48:48.374Z,1.60
2022-09-26T10:51:25.002Z,1.00
2022-09-26T10:54:01.392Z,1.55
2022-09-26T10:56:31.695Z,1.08
2022-09-26T10:59:06.244Z,1.40
2022-09-26T11:01:43.417Z,1.55
2022-09-26T11:04:40.548Z,1.45
2022-09-26T11:07:12.552Z,1.30
2022-09-26T11:09:41.184Z,1.30
2022-09-26T11:12:27.318Z,1.50
2022-09-26T11:14:57.053Z,1.52
2022-09-26T11:17:43.515Z,1.35
2022-09-26T11:20:17.788Z,1.38
2022-09-26T11:22:53.586Z,1.50
2022-09-26T11:25:26.681Z,1.40
2022-09-26T11:28:02.994Z,1.58
2022-09-26T11:30:32.436Z,1.33
2022-09-26T11:33:05.661Z,1.40
2022-09-26T11:35:44.105Z,1.50
2022-09-26T11:38:22.115Z,1.30
2022-09-26T11:41:05.579Z,1.38
2022-09-26T11:43:43.023Z,1.63
2022-09-26T11:46:27.449Z,1.23
2022-09-26T11:49:13.256Z,1.50
2022-09-26T11:51:51.385Z,1.20
2022-09-26T11:54:36.061Z,1.40
2022-09-26T11:57:08.753Z,1.63
2022-09-26T12:00:00.325Z,1.63
2022-09-26T12:02:40.226Z,1.73
2022-09-26T12:05:33.017Z,1.77
2022-09-26T12:08:13.562Z,1.10
2022-09-26T12:10:50.096Z,1.35
2022-09-26T12:13:34.310Z,1.70
2022-09-26T12:16:09.562Z,1.10
2022-09-26T12:18:43.691Z,1.10
2022-09-26T12:21:18.824Z,1.55
2022-09-26T12:23:51.880Z,0.70
2022-09-26T12:26:25.079Z,0.93
2022-09-26T12:29:23.442Z,1.10
2022-09-26T12:32:36.085Z,0.88
2022-09-26T12:35:24.055Z,0.90
2022-09-26T12:38:15.413Z,0.70
2022-09-26T12:41:17.482Z,0.80
2022-09-26T12:47:41.840Z,1.10
2022-09-26T12:50:48.253Z,1.00
2022-09-26T12:53:42.151Z,1.20
2022-09-26T13:21:20.137Z,1.70
2022-09-26T13:26:26.037Z,1.80
2022-09-26T13:29:16.102Z,1.80
2022-09-26T13:31:50.785Z,1.38
2022-09-26T13:34:24.060Z,1.50
2022-09-26T13:36:59.110Z,1.63
2022-09-26T13:39:33.747Z,1.27
2022-09-26T13:42:05.605Z,1.20
2022-09-26T13:44:43.648Z,0.98
2022-09-26T13:47:19.884Z,0.70
2022-09-26T13:49:53.374Z,0.70
2022-09-26T13:52:40.274Z,0.77
2022-09-26T13:55:19.256Z,0.70
2022-09-26T13:57:49.958Z,0.95
2022-09-26T14:00:40.613Z,0.65
2022-09-26T14:03:24.095Z,0.70
2022-09-26T14:05:54.668Z,0.80
2022-09-26T14:08:47.853Z,0.80
2022-09-26T14:11:27.896Z,0.98
2022-09-26T14:14:16.394Z,0.70
2022-09-26T14:16:45.062Z,0.80
2022-09-26T14:19:15.166Z,0.93
2022-09-26T14:21:46.645Z,0.95
2022-09-26T14:24:32.320Z,0.60
2022-09-26T14:27:25.943Z,0.88
2022-09-26T14:29:55.307Z,0.82
2022-09-26T14:32:24.684Z,0.70
2022-09-26T14:34:57.468Z,0.80
2022-09-26T14:37:33.503Z,0.80
2022-09-26T14:40:21.992Z,1.00
2022-09-26T14:42:54.040Z,1.08
2022-09-26T14:45:24.332Z,0.95
2022-09-26T14:48:00.250Z,0.93
2022-09-26T14:50:35.658Z,0.90
2022-09-26T14:53:11.875Z,0.90
2022-09-26T14:55:54.096Z,0.75
2022-09-26T14:58:31.929Z,0.88
2022-09-26T15:01:03.563Z,1.17
2022-09-26T15:03:32.460Z,1.40
2022-09-26T15:06:01.260Z,0.80
2022-09-26T15:08:32.032Z,1.23
2022-09-26T15:11:02.341Z,1.00
2022-09-26T15:13:34.750Z,1.00
2022-09-26T15:16:12.448Z,0.80
2022-09-26T15:18:42.266Z,0.80
2022-09-26T15:21:18.418Z,0.70
2022-09-26T15:23:48.260Z,1.20
2022-09-26T15:26:18.347Z,0.73
2022-09-26T15:28:49.148Z,0.88
2022-09-26T15:31:22.195Z,1.00
2022-09-26T15:33:52.274Z,0.88
2022-09-26T15:36:20.759Z,1.10
2022-09-26T15:38:49.791Z,0.82
2022-09-26T15:41:39.207Z,0.90
2022-09-26T15:44:09.227Z,1.10
2022-09-26T15:46:37.693Z,1.15
2022-09-26T15:49:17.100Z,0.95
2022-09-26T15:51:46.084Z,0.98
2022-09-26T15:54:20.339Z,1.45
2022-09-26T15:56:51.500Z,1.10
2022-09-26T15:59:23.002Z,1.58
2022-09-26T16:01:52.500Z,1.20
2022-09-26T16:04:22.132Z,1.00
2022-09-26T16:06:55.941Z,0.90
2022-09-26T16:11:53.379Z,1.23
2022-09-26T16:14:26.720Z,1.10
2022-09-26T16:16:56.448Z,1.20
2022-09-26T16:19:31.645Z,1.38
2022-09-26T16:22:00.149Z,1.20
2022-09-26T16:24:30.847Z,1.30
2022-09-26T16:26:59.224Z,1.20
2022-09-26T16:29:37.645Z,1.02
2022-09-26T16:32:06.809Z,1.40
2022-09-26T16:34:35.306Z,1.00
2022-09-26T16:37:03.643Z,0.77
2022-09-26T16:39:32.936Z,1.10
2022-09-26T16:42:03.492Z,1.10
2022-09-26T16:44:36.027Z,1.00
2022-09-26T16:47:09.173Z,1.30
2022-09-26T16:49:48.359Z,2.22
2022-09-26T16:52:28.827Z,2.35
2022-09-26T16:54:57.943Z,3.08
2022-09-26T16:57:27.302Z,1.48
2022-09-26T17:00:15.837Z,1.10
2022-09-26T17:02:44.881Z,1.15
2022-09-26T17:05:18.712Z,1.70
2022-09-26T17:07:47.202Z,1.23
2022-09-26T17:10:15.679Z,1.55
2022-09-26T17:12:45.035Z,1.48
2022-09-26T17:15:20.404Z,1.80
2022-09-26T17:17:53.564Z,1.20
2022-09-26T17:20:22.227Z,1.85
2022-09-26T17:22:50.539Z,2.30
2022-09-26T17:25:19.845Z,2.40
2022-09-26T17:27:49.317Z,2.63
2022-09-26T17:30:18.691Z,2.78
2022-09-26T17:32:49.762Z,1.80
2022-09-26T17:35:24.949Z,1.77
2022-09-26T17:37:53.570Z,1.65
2022-09-26T17:40:24.262Z,1.20
2022-09-26T17:42:55.381Z,1.25
2022-09-26T17:45:28.017Z,1.40
2022-09-26T17:47:57.081Z,1.63
2022-09-26T17:50:29.126Z,1.35
2022-09-26T17:52:58.057Z,1.23
2022-09-26T17:55:27.128Z,1.10
2022-09-26T17:57:55.716Z,1.38
2022-09-26T18:00:24.099Z,1.40
2022-09-26T18:02:55.336Z,1.35
2022-09-26T18:05:25.427Z,1.38
2022-09-26T18:07:56.235Z,1.38
2022-09-26T18:10:30.330Z,1.10
2022-09-26T18:13:00.461Z,1.00
2022-09-26T18:15:31.292Z,1.10
2022-09-26T18:18:01.495Z,1.30
2022-09-26T18:20:35.551Z,1.35
2022-09-26T18:23:06.668Z,1.15
2022-09-26T18:25:37.265Z,1.55
2022-09-26T18:28:08.141Z,1.52
2022-09-26T18:30:36.495Z,1.67
2022-09-26T18:33:06.995Z,1.60
2022-09-26T18:35:35.301Z,1.20
2022-09-26T18:38:05.072Z,1.38
2022-09-26T18:40:33.591Z,1.77
2022-09-26T18:43:01.918Z,1.70
2022-09-26T18:45:35.950Z,1.27
2022-09-26T18:48:07.626Z,1.65
2022-09-26T18:50:37.776Z,2.00
2022-09-26T18:53:12.571Z,1.50
2022-09-26T18:55:58.752Z,1.10
2022-09-26T18:58:27.939Z,1.40
2022-09-26T19:00:59.096Z,1.27
2022-09-26T19:03:29.112Z,1.40
2022-09-26T19:06:02.308Z,1.40
2022-09-26T19:08:35.277Z,1.63
2022-09-26T19:11:06.694Z,1.35
2022-09-26T19:13:34.998Z,1.20
2022-09-26T19:16:03.734Z,1.33
2022-09-26T19:18:32.160Z,1.48
2022-09-26T19:21:00.755Z,1.33
2022-09-26T19:23:31.686Z,1.85
2022-09-26T19:26:01.526Z,1.20
2022-09-26T19:28:32.015Z,1.17
2022-09-26T19:31:00.437Z,1.30
2022-09-26T19:33:28.993Z,1.25
2022-09-26T19:35:57.790Z,1.30
2022-09-26T19:38:27.115Z,1.48
2022-09-26T19:40:55.568Z,1.45
2022-09-26T19:43:25.319Z,1.55
2022-09-26T19:45:54.758Z,1.30
2022-09-26T19:48:23.842Z,1.70
2022-09-26T19:50:52.903Z,1.55
2022-09-26T19:53:22.517Z,1.60
2022-09-26T19:55:51.209Z,1.60
2022-09-26T19:58:20.470Z,1.50
2022-09-26T20:00:51.590Z,1.38
2022-09-26T20:03:20.894Z,1.70
2022-09-26T20:05:49.988Z,1.80
2022-09-26T20:08:19.684Z,1.55
2022-09-26T20:10:48.099Z,1.90
2022-09-26T20:13:16.519Z,1.80
2022-09-26T20:15:45.219Z,1.95
2022-09-26T20:18:15.797Z,1.95
2022-09-26T20:20:44.149Z,1.50
2022-09-26T20:23:16.934Z,1.80
2022-09-26T20:25:46.166Z,1.58
2022-09-26T20:28:14.568Z,1.70
2022-09-26T20:30:56.765Z,1.35
2022-09-26T20:33:27.362Z,1.35
2022-09-26T20:36:02.405Z,1.60
2022-09-26T20:38:33.751Z,1.73
2022-09-26T20:41:03.502Z,1.80
2022-09-26T20:43:33.951Z,1.70
2022-09-26T20:46:04.664Z,2.17
2022-09-26T20:48:35.201Z,1.90
2022-09-26T20:51:04.027Z,1.83
2022-09-26T20:53:32.337Z,1.88
2022-09-26T20:56:00.669Z,2.10
2022-09-26T20:58:28.967Z,2.20
2022-09-26T21:00:59.472Z,1.80
2022-09-26T21:03:28.222Z,1.90
2022-09-26T21:05:58.373Z,1.58
2022-09-26T21:08:27.758Z,1.80
2022-09-26T21:10:56.630Z,1.63
2022-09-26T21:13:25.236Z,1.80
2022-09-26T21:15:54.305Z,2.20
2022-09-26T21:18:25.149Z,2.22
2022-09-26T21:20:53.838Z,2.00
2022-09-26T21:23:24.260Z,1.83
2022-09-26T21:25:52.625Z,2.58
2022-09-26T21:28:26.257Z,3.05
2022-09-26T21:30:55.302Z,3.50
2022-09-26T21:33:23.699Z,2.60
2022-09-26T21:35:52.376Z,3.35
2022-09-26T21:38:21.451Z,3.03
2022-09-26T21:40:54.168Z,3.15
2022-09-26T21:43:24.307Z,3.63
2022-09-26T21:45:52.660Z,2.78
2022-09-26T21:48:21.053Z,2.55
2022-09-26T21:50:54.106Z,2.70
2022-09-26T21:53:26.823Z,2.92
2022-09-26T21:55:58.538Z,3.40
2022-09-26T21:58:28.645Z,3.90
2022-09-26T22:00:57.787Z,2.40
2022-09-26T22:03:26.153Z,3.38
2022-09-26T22:05:54.478Z,3.00
2022-09-26T22:08:22.879Z,3.38
2022-09-26T22:10:54.373Z,5.20
2022-09-26T22:13:24.165Z,2.95
2022-09-26T22:15:52.586Z,3.78
2022-09-26T22:18:21.040Z,3.20
2022-09-26T22:20:56.183Z,3.35
2022-09-26T22:23:24.505Z,3.28
2022-09-26T22:25:52.911Z,1.80
2022-09-26T22:28:21.258Z,2.13
2022-09-26T22:30:51.015Z,2.20
2022-09-26T22:33:19.688Z,2.90
2022-09-26T22:35:48.460Z,3.67
2022-09-26T22:38:16.903Z,3.28
2022-09-26T22:40:45.469Z,2.60
2022-09-26T22:43:13.928Z,3.20
2022-09-26T22:45:42.330Z,4.25
2022-09-26T22:48:12.337Z,2.53
2022-09-26T22:50:42.846Z,2.92
2022-09-26T22:53:11.207Z,4.20
2022-09-26T22:55:39.632Z,2.80
2022-09-26T22:58:08.079Z,2.60
2022-09-26T23:00:36.526Z,1.77
2022-09-26T23:03:04.936Z,1.88
2022-09-26T23:05:34.767Z,2.00
2022-09-26T23:08:03.413Z,1.20
2022-09-26T23:10:31.866Z,1.50
2022-09-26T23:13:00.257Z,1.67
2022-09-26T23:15:28.682Z,1.73
2022-09-26T23:17:57.168Z,2.30
2022-09-26T23:20:25.639Z,1.50
2022-09-26T23:22:56.253Z,1.60
2022-09-26T23:25:29.150Z,1.50
2022-09-26T23:28:02.983Z,1.53
2022-09-26T23:33:00.393Z,2.00
2022-09-26T23:35:32.822Z,1.60
2022-09-26T23:38:07.590Z,1.80
2022-09-26T23:40:47.144Z,1.40
2022-09-26T23:43:20.228Z,1.58
2022-09-26T23:45:55.438Z,1.80
2022-09-26T23:48:26.442Z,1.75
2022-09-26T23:50:55.171Z,1.70
2022-09-26T23:53:33.398Z,2.03
2022-09-26T23:56:13.197Z,1.65
2022-09-26T23:58:42.254Z,1.70
